createdAt,value
2019-05-12T00:03:27.661Z,1.90
2019-05-12T00:07:48.813Z,2.00
2019-05-12T00:12:08.219Z,1.80
2019-05-12T00:16:28.357Z,2.60
2019-05-12T00:20:47.654Z,2.20
2019-05-12T00:25:08.823Z,1.70
2019-05-12T00:29:28.734Z,3.00
2019-05-12T00:33:48.057Z,2.70
2019-05-12T00:38:09.075Z,2.80
2019-05-12T00:42:28.750Z,2.47
2019-05-12T00:46:48.794Z,2.90
2019-05-12T00:51:08.554Z,3.03
2019-05-12T00:55:29.024Z,3.10
2019-05-12T00:59:47.853Z,3.30
2019-05-12T01:04:08.836Z,3.93
2019-05-12T01:08:28.089Z,4.80
2019-05-12T01:12:48.495Z,4.90
2019-05-12T01:17:08.266Z,3.50
2019-05-12T01:21:28.701Z,3.97
2019-05-12T01:25:47.827Z,5.20
2019-05-12T01:30:08.922Z,3.77
2019-05-12T01:34:27.870Z,4.30
2019-05-12T01:38:48.280Z,5.80
2019-05-12T01:43:08.256Z,5.30
2019-05-12T01:47:26.030Z,6.83
2019-05-12T01:51:44.282Z,6.40
2019-05-12T01:56:02.687Z,4.37
2019-05-12T02:00:21.434Z,4.00
2019-05-12T02:04:58.802Z,5.20
2019-05-12T02:09:19.300Z,4.43
2019-05-12T02:13:38.112Z,5.13
2019-05-12T02:17:58.626Z,5.30
2019-05-12T02:22:18.863Z,6.10
2019-05-12T02:26:38.211Z,7.60
2019-05-12T02:30:58.975Z,7.80
2019-05-12T02:35:16.549Z,8.50
2019-05-12T02:39:35.342Z,6.27
2019-05-12T02:43:55.311Z,5.70
2019-05-12T02:48:14.566Z,9.00
2019-05-12T02:52:34.689Z,5.67
2019-05-12T02:56:55.146Z,7.30
2019-05-12T03:01:15.255Z,7.13
2019-05-12T03:05:35.454Z,5.23
2019-05-12T03:09:56.423Z,4.97
2019-05-12T03:14:15.727Z,5.50
2019-05-12T03:18:34.914Z,6.20
2019-05-12T03:22:55.367Z,6.33
2019-05-12T03:27:14.635Z,6.60
2019-05-12T03:31:40.250Z,6.27
2019-05-12T03:36:00.277Z,6.97
2019-05-12T03:40:14.794Z,7.30
2019-05-12T03:44:35.198Z,6.63
2019-05-12T03:48:55.292Z,5.47
2019-05-12T03:53:15.645Z,4.80
2019-05-12T03:57:34.574Z,4.60
2019-05-12T04:01:55.140Z,6.10
2019-05-12T04:06:15.364Z,6.60
2019-05-12T04:10:35.483Z,6.10
2019-05-12T04:14:55.078Z,6.60
2019-05-12T04:19:14.671Z,6.80
2019-05-12T04:23:34.988Z,6.07
2019-05-12T04:27:54.223Z,8.47
2019-05-12T04:32:14.387Z,6.40
2019-05-12T04:36:35.594Z,6.90
2019-05-12T04:40:55.270Z,6.30
2019-05-12T04:45:15.613Z,6.10
2019-05-12T04:49:34.586Z,5.33
2019-05-12T04:53:54.893Z,5.07
2019-05-12T04:58:15.752Z,6.20
2019-05-12T05:02:36.270Z,7.70
2019-05-12T05:06:55.106Z,7.20
2019-05-12T05:11:14.775Z,6.33
2019-05-12T05:15:34.720Z,6.17
2019-05-12T05:19:53.314Z,5.40
2019-05-12T05:24:14.363Z,6.70
2019-05-12T05:28:33.983Z,5.97
2019-05-12T05:32:53.572Z,4.43
2019-05-12T05:37:14.538Z,5.03
2019-05-12T05:41:34.575Z,3.77
2019-05-12T05:45:56.085Z,5.17
2019-05-12T05:50:18.429Z,6.30
2019-05-12T05:54:36.371Z,5.80
2019-05-12T05:58:54.989Z,4.80
2019-05-12T06:03:22.237Z,3.70
2019-05-12T06:07:38.773Z,4.07
2019-05-12T06:11:59.162Z,5.53
2019-05-12T06:16:20.656Z,4.60
2019-05-12T06:20:38.354Z,4.70
2019-05-12T06:24:58.875Z,5.73
2019-05-12T06:29:20.629Z,4.90
2019-05-12T06:33:36.579Z,4.77
2019-05-12T06:37:58.432Z,4.50
2019-05-12T06:42:17.053Z,3.50
2019-05-12T06:46:35.583Z,3.37
2019-05-12T06:50:53.933Z,4.43
2019-05-12T06:55:14.692Z,2.80
2019-05-12T06:59:33.885Z,2.77
2019-05-12T07:03:53.376Z,3.90
2019-05-12T07:08:12.019Z,5.90
2019-05-12T07:12:36.519Z,5.50
2019-05-12T07:17:01.748Z,5.40
2019-05-12T07:21:19.707Z,4.10
2019-05-12T07:25:36.744Z,3.77
2019-05-12T07:29:54.859Z,4.13
2019-05-12T07:34:13.691Z,3.37
2019-05-12T07:38:35.154Z,3.60
2019-05-12T07:42:55.798Z,2.10
2019-05-12T07:47:19.300Z,3.40
2019-05-12T07:51:40.522Z,3.57
2019-05-12T07:55:57.524Z,2.80
2019-05-12T08:00:25.740Z,3.13
2019-05-12T08:04:39.774Z,3.60
2019-05-12T08:08:59.044Z,2.90
2019-05-12T08:13:18.775Z,2.10
2019-05-12T08:17:38.920Z,2.30
2019-05-12T08:21:57.588Z,1.70
2019-05-12T08:26:18.499Z,2.70
2019-05-12T08:45:37.706Z,2.20
2019-05-12T08:49:58.794Z,1.50
2019-05-12T08:54:15.902Z,2.80
2019-05-12T08:58:46.868Z,3.53
2019-05-12T09:02:53.985Z,3.27
2019-05-12T09:07:13.855Z,2.37
2019-05-12T09:11:33.526Z,2.20
2019-05-12T09:15:54.169Z,1.70
2019-05-12T09:20:13.936Z,2.50
2019-05-12T09:24:33.752Z,2.40
2019-05-12T09:28:54.166Z,2.50
2019-05-12T09:33:13.857Z,2.43
2019-05-12T09:37:39.089Z,2.83
2019-05-12T09:41:54.794Z,2.70
2019-05-12T09:46:11.127Z,2.40
2019-05-12T09:50:29.247Z,1.60
2019-05-12T09:54:47.366Z,1.97
2019-05-12T09:59:17.114Z,2.30
2019-05-12T10:03:25.918Z,2.53
2019-05-12T10:07:44.903Z,1.87
2019-05-12T10:12:05.449Z,1.80
2019-05-12T10:16:24.098Z,1.67
2019-05-12T10:20:44.102Z,2.10
2019-05-12T10:25:04.012Z,1.53
2019-05-12T10:29:24.392Z,1.17
2019-05-12T10:33:43.292Z,1.37
2019-05-12T10:38:08.608Z,1.40
2019-05-12T10:42:24.227Z,1.40
2019-05-12T10:46:42.680Z,2.50
2019-05-12T10:51:00.880Z,1.50
2019-05-12T10:55:19.221Z,2.20
2019-05-12T10:59:38.725Z,2.00
2019-05-12T11:03:57.488Z,1.93
2019-05-12T11:08:15.592Z,1.80
2019-05-12T11:12:34.002Z,1.70
2019-05-12T11:16:54.468Z,1.90
2019-05-12T11:21:12.971Z,1.57
2019-05-12T11:25:34.074Z,1.87
2019-05-12T11:29:53.437Z,1.60
2019-05-12T11:34:11.801Z,1.47
2019-05-12T11:38:30.668Z,1.63
2019-05-12T11:42:59.018Z,1.73
2019-05-12T11:47:16.952Z,2.40
2019-05-12T11:51:30.613Z,1.40
2019-05-12T11:55:48.775Z,1.30
2019-05-12T12:00:09.026Z,1.80
2019-05-12T12:04:45.610Z,1.57
2019-05-12T12:09:09.313Z,1.00
2019-05-12T12:13:29.710Z,1.20
2019-05-12T12:17:45.173Z,1.40
2019-05-12T12:22:04.381Z,2.07
2019-05-12T12:26:30.184Z,1.40
2019-05-12T12:30:52.572Z,1.20
2019-05-12T12:35:11.000Z,1.00
2019-05-12T12:39:26.832Z,1.70
2019-05-12T12:43:49.949Z,1.20
2019-05-12T12:48:08.726Z,1.00
2019-05-12T12:52:27.429Z,1.30
2019-05-12T12:56:45.598Z,1.33
2019-05-12T13:01:04.637Z,1.30
2019-05-12T13:05:23.941Z,1.10
2019-05-12T13:09:44.061Z,1.10
2019-05-12T13:14:04.076Z,1.40
2019-05-12T13:18:25.803Z,1.10
2019-05-12T13:22:44.270Z,1.00
2019-05-12T13:27:03.560Z,1.30
2019-05-12T13:31:24.164Z,1.00
2019-05-12T13:35:43.492Z,1.23
2019-05-12T13:40:01.714Z,1.30
2019-05-12T13:44:20.026Z,0.90
2019-05-12T13:48:38.443Z,1.77
2019-05-12T13:53:01.255Z,1.50
2019-05-12T13:57:23.477Z,1.10
2019-05-12T14:01:42.865Z,1.00
2019-05-12T14:06:03.560Z,1.00
2019-05-12T14:10:24.556Z,0.80
2019-05-12T14:14:45.113Z,1.20
2019-05-12T14:19:05.117Z,1.30
2019-05-12T14:23:24.000Z,1.00
2019-05-12T14:27:44.305Z,0.83
2019-05-12T14:32:05.395Z,0.87
2019-05-12T14:36:26.585Z,0.80
2019-05-12T14:40:43.713Z,0.80
2019-05-12T14:45:04.671Z,0.80
2019-05-12T14:49:26.404Z,0.70
2019-05-12T14:53:48.033Z,0.93
2019-05-12T14:58:09.192Z,0.70
2019-05-12T15:02:29.493Z,0.70
2019-05-12T15:06:48.141Z,0.80
2019-05-12T15:11:06.217Z,0.80
2019-05-12T15:15:25.901Z,0.70
2019-05-12T15:19:45.308Z,0.73
2019-05-12T15:24:04.059Z,0.73
2019-05-12T15:28:23.830Z,0.90
2019-05-12T15:32:43.116Z,0.80
2019-05-12T15:37:03.956Z,0.67
2019-05-12T15:41:23.819Z,0.77
2019-05-12T15:45:43.701Z,0.80
2019-05-12T15:50:04.099Z,0.77
2019-05-12T15:54:23.618Z,0.87
2019-05-12T15:58:44.093Z,0.70
2019-05-12T16:03:03.372Z,0.70
2019-05-12T16:07:24.254Z,0.77
2019-05-12T16:11:43.164Z,0.80
2019-05-12T16:16:05.841Z,0.73
2019-05-12T16:20:24.249Z,0.70
2019-05-12T16:24:48.725Z,0.90
2019-05-12T16:29:07.019Z,0.70
2019-05-12T16:33:24.228Z,0.80
2019-05-12T16:37:44.265Z,0.67
2019-05-12T16:42:08.292Z,0.80
2019-05-12T16:46:23.493Z,0.70
2019-05-12T16:50:51.759Z,0.80
2019-05-12T16:55:10.845Z,0.90
2019-05-12T16:59:29.277Z,0.70
2019-05-12T17:03:47.372Z,0.77
2019-05-12T17:08:06.616Z,0.70
2019-05-12T17:12:31.841Z,0.67
2019-05-12T17:16:46.622Z,0.63
2019-05-12T17:21:04.890Z,0.70
2019-05-12T17:25:23.954Z,0.70
2019-05-12T17:29:43.522Z,0.80
2019-05-12T17:34:14.383Z,0.70
2019-05-12T17:38:34.538Z,0.70
2019-05-12T17:42:59.380Z,0.80
2019-05-12T17:47:21.453Z,0.80
2019-05-12T17:51:35.446Z,0.77
2019-05-12T17:55:56.285Z,0.80
2019-05-12T18:00:15.926Z,0.77
2019-05-12T18:04:37.032Z,0.73
2019-05-12T18:08:55.115Z,0.70
2019-05-12T18:13:15.056Z,0.77
2019-05-12T18:17:33.899Z,0.70
2019-05-12T18:21:54.810Z,0.70
2019-05-12T18:26:16.166Z,0.73
2019-05-12T18:30:33.505Z,0.80
2019-05-12T18:34:53.808Z,0.80
2019-05-12T18:39:15.049Z,0.70
2019-05-12T18:43:34.414Z,0.80
2019-05-12T18:47:53.834Z,0.73
2019-05-12T18:52:14.558Z,0.80
2019-05-12T18:56:33.661Z,0.70
2019-05-12T19:00:53.840Z,0.70
2019-05-12T19:05:20.810Z,0.73
2019-05-12T19:09:33.467Z,0.70
2019-05-12T19:13:57.193Z,0.80
2019-05-12T19:18:18.106Z,0.80
2019-05-12T19:22:39.409Z,0.70
2019-05-12T19:26:56.581Z,0.70
2019-05-12T19:31:15.069Z,0.80
2019-05-12T19:35:34.171Z,0.80
2019-05-12T19:39:53.989Z,0.70
2019-05-12T19:44:13.513Z,0.70
2019-05-12T19:48:43.010Z,0.70
2019-05-12T19:52:54.111Z,0.70
2019-05-12T19:57:21.689Z,0.80
2019-05-12T20:01:34.675Z,0.63
2019-05-12T20:05:53.824Z,0.70
2019-05-12T20:10:15.720Z,0.70
2019-05-12T20:14:34.362Z,0.70
2019-05-12T20:18:57.714Z,0.67
2019-05-12T20:23:14.166Z,0.77
2019-05-12T20:27:34.555Z,0.60
2019-05-12T20:31:53.818Z,0.70
2019-05-12T20:36:14.270Z,0.80
2019-05-12T20:40:37.677Z,1.10
2019-05-12T20:44:57.677Z,0.70
2019-05-12T21:14:20.345Z,0.80
2019-05-12T21:18:47.988Z,0.73
2019-05-12T21:22:58.829Z,0.73
2019-05-12T21:27:19.787Z,0.80
2019-05-12T21:31:37.533Z,0.70
2019-05-12T21:35:55.638Z,0.70
2019-05-12T21:40:14.869Z,0.70
2019-05-12T21:44:33.866Z,0.90
2019-05-12T21:48:53.219Z,0.90
2019-05-12T21:53:17.590Z,0.73
2019-05-12T21:57:36.201Z,0.73
2019-05-12T22:01:55.160Z,0.80
2019-05-12T22:06:21.164Z,0.73
2019-05-12T22:10:34.430Z,0.90
2019-05-12T22:14:54.308Z,0.70
2019-05-12T22:19:12.506Z,0.80
2019-05-12T22:23:33.154Z,0.70
2019-05-12T22:27:53.742Z,0.80
2019-05-12T22:32:13.667Z,0.77
2019-05-12T22:36:31.054Z,0.80
2019-05-12T22:40:54.719Z,0.80
2019-05-12T22:45:10.250Z,0.87
2019-05-12T22:49:28.313Z,1.00
2019-05-12T22:53:46.775Z,1.17
2019-05-12T22:58:05.039Z,0.80
2019-05-12T23:02:28.007Z,0.70
2019-05-12T23:06:46.514Z,0.97
2019-05-12T23:11:03.830Z,0.80
2019-05-12T23:15:24.284Z,0.70
2019-05-12T23:19:51.026Z,0.90
2019-05-12T23:24:03.763Z,0.83
2019-05-12T23:28:21.809Z,0.80
2019-05-12T23:32:45.303Z,0.93
2019-05-12T23:37:00.257Z,0.77
2019-05-12T23:41:18.401Z,0.70
2019-05-12T23:45:36.732Z,0.83
